Weather History for Madison, MN

Change the Weather History Date:

Thursday, May 2, 2013

  Actual Average (KAQP) Record (KAQP)
Temperature  
Mean Temperature 36 °F -  
Max Temperature 44 °F 63 °F 78 °F (2012)
Min Temperature 28 °F 38 °F 23 °F (2002)
Degree Days  
Heating Degree Days 29    
Moisture  
Dew Point 24 °F    
Average Humidity 64    
Maximum Humidity 86    
Minimum Humidity 39    
Precipitation  
Precipitation 0.00 in - - ()
Sea Level Pressure  
Sea Level Pressure 30.57 in    
Wind  
Wind Speed 11 mph (NNW)    
Max Wind Speed 24 mph    
Max Gust Speed 32 mph    
Visibility 10 miles    
Events      
Averages and records for this station are not official NWS values.
T = Trace of Precipitation, MM = Missing Value Source: NWS Daily Summary

Daily Weather History Graph

Daily Weather History Graph

Search for Another Location

Airport:

Trip Planner

Search our weather history database for the weather conditions in past years. The results will help you decide how hot, cold, wet, or windy it might be!

Date:

Astronomy

May. 02, 2013 Rise Set
Actual Time 6:12 AM CDT 8:31 PM CDT
Civil Twilight 5:39 AM CDT 9:04 PM CDT
Nautical Twilight 4:59 AM CDT 9:45 PM CDT
Astronomical Twilight 4:14 AM CDT 10:30 PM CDT
Moon 2:19 AM CDT (5/2) 1:04 PM CDT (5/2)
Length of Visible Light 15h 24m
Length of Day
14h 19m
Waning Gibbous, 47% of the Moon is Illuminated
May 2
Waning Gibbous
May 9
New
May 17
First Quarter
May 24
Full
May 31
Last Quarter

Hourly Weather History & Observations

Time (CDT) Temp. Windchill Dew Point Humidity Pressure Visibility Wind Dir Wind Speed Gust Speed Precip Events Conditions
12:13 AM 33.8 °F 27.0 °F 26.6 °F 75% 30.56 in 10.0 mi North 8.1 mph - N/A   Clear
12:34 AM 32.0 °F 24.8 °F 26.6 °F 80% 30.57 in 10.0 mi North 8.1 mph - N/A   Clear
12:53 AM 32.0 °F 26.4 °F 24.8 °F 75% 30.57 in 10.0 mi North 5.8 mph - N/A   Clear
1:13 AM 30.2 °F 24.3 °F 24.8 °F 80% 30.57 in 10.0 mi North 5.8 mph - N/A   Clear
1:34 AM 30.2 °F 24.3 °F 24.8 °F 80% 30.58 in 10.0 mi North 5.8 mph - N/A   Clear
1:53 AM 30.2 °F 25.4 °F 24.8 °F 80% 30.59 in 10.0 mi NW 4.6 mph - N/A   Clear
2:13 AM 28.4 °F 23.3 °F 24.8 °F 86% 30.58 in 10.0 mi NW 4.6 mph - N/A   Clear
2:34 AM 28.4 °F 22.2 °F 24.8 °F 86% 30.57 in 10.0 mi NW 5.8 mph - N/A   Clear
2:53 AM 30.2 °F 25.4 °F 24.8 °F 80% 30.58 in 10.0 mi NW 4.6 mph - N/A   Clear
3:13 AM 28.4 °F 23.3 °F 24.8 °F 86% 30.58 in 10.0 mi NW 4.6 mph - N/A   Clear
3:34 AM 28.4 °F 22.2 °F 24.8 °F 86% 30.58 in 10.0 mi NNW 5.8 mph - N/A   Clear
3:53 AM 28.4 °F 22.2 °F 24.8 °F 86% 30.59 in 10.0 mi NW 5.8 mph - N/A   Clear
4:14 AM 28.4 °F 21.2 °F 24.8 °F 86% 30.59 in 10.0 mi NW 6.9 mph - N/A   Clear
4:34 AM 28.4 °F 22.2 °F 24.8 °F 86% 30.59 in 10.0 mi NW 5.8 mph - N/A   Clear
4:53 AM 28.4 °F 22.2 °F 24.8 °F 86% 30.59 in 10.0 mi NW 5.8 mph - N/A   Clear
5:14 AM 28.4 °F 22.2 °F 24.8 °F 86% 30.59 in 10.0 mi NW 5.8 mph - N/A   Clear
5:34 AM 28.4 °F 22.2 °F 24.8 °F 86% 30.61 in 10.0 mi WNW 5.8 mph - N/A   Clear
5:53 AM 28.4 °F 22.2 °F 24.8 °F 86% 30.60 in 10.0 mi NW 5.8 mph - N/A   Clear
6:14 AM 28.4 °F 20.4 °F 24.8 °F 86% 30.60 in 10.0 mi NNW 8.1 mph - N/A   Clear
6:33 AM 28.4 °F 21.2 °F 24.8 °F 86% 30.61 in 10.0 mi NW 6.9 mph - N/A   Clear
6:53 AM 30.2 °F 24.3 °F 24.8 °F 80% 30.62 in 10.0 mi NW 5.8 mph - N/A   Clear
7:14 AM 30.2 °F 22.6 °F 26.6 °F 86% 30.62 in 10.0 mi NNW 8.1 mph - N/A   Clear
7:33 AM 32.0 °F 24.2 °F 26.6 °F 80% 30.63 in 10.0 mi NNW 9.2 mph - N/A   Clear
7:53 AM 33.8 °F 24.8 °F 26.6 °F 75% 30.63 in 10.0 mi NNW 12.7 mph - N/A   Clear
8:14 AM 33.8 °F 24.8 °F 24.8 °F 70% 30.64 in 10.0 mi NNW 12.7 mph - N/A   Clear
8:33 AM 35.6 °F 27.5 °F 24.8 °F 65% 30.64 in 10.0 mi NNW 11.5 mph - N/A   Clear
8:54 AM 35.6 °F 27.5 °F 24.8 °F 65% 30.65 in 10.0 mi NNW 11.5 mph - N/A   Clear
9:13 AM 35.6 °F 26.6 °F 24.8 °F 65% 30.65 in 10.0 mi NNW 13.8 mph - N/A   Clear
9:34 AM 35.6 °F 27.1 °F 23.0 °F 60% 30.65 in 10.0 mi North 12.7 mph 18.4 mph N/A   Clear
9:54 AM 37.4 °F 28.9 °F 23.0 °F 56% 30.64 in 10.0 mi NNW 13.8 mph - N/A   Scattered Clouds
10:13 AM 37.4 °F 28.2 °F 23.0 °F 56% 30.64 in 10.0 mi North 16.1 mph - N/A   Scattered Clouds
10:34 AM 39.2 °F 30.8 °F 24.8 °F 56% 30.64 in 10.0 mi NNW 15.0 mph - N/A   Scattered Clouds
10:54 AM 39.2 °F 31.2 °F 24.8 °F 56% 30.63 in 10.0 mi NNW 13.8 mph 20.7 mph N/A   Mostly Cloudy
11:13 AM 39.2 °F 30.2 °F 24.8 °F 56% 30.63 in 10.0 mi North 17.3 mph 23.0 mph N/A   Scattered Clouds
11:34 AM 41.0 °F 32.5 °F 24.8 °F 53% 30.63 in 10.0 mi NNW 17.3 mph 24.2 mph N/A   Scattered Clouds
11:54 AM 41.0 °F 33.1 °F 24.8 °F 53% 30.62 in 10.0 mi NNW 15.0 mph 26.5 mph N/A   Scattered Clouds
12:13 PM 41.0 °F 31.6 °F 24.8 °F 53% 30.62 in 10.0 mi North 20.7 mph 25.3 mph N/A   Scattered Clouds
12:33 PM 42.8 °F 34.0 °F 23.0 °F 46% 30.61 in 10.0 mi NNW 20.7 mph 28.8 mph N/A   Scattered Clouds
12:54 PM 41.0 °F 31.4 °F 21.2 °F 45% 30.60 in 10.0 mi North 21.9 mph 31.1 mph N/A   Scattered Clouds
1:13 PM 42.8 °F 34.3 °F 23.0 °F 46% 30.59 in 10.0 mi North 19.6 mph 29.9 mph N/A   Scattered Clouds
1:33 PM 42.8 °F 33.5 °F 21.2 °F 42% 30.59 in 10.0 mi North 23.0 mph 29.9 mph N/A   Clear
1:54 PM 42.8 °F 33.3 °F 21.2 °F 42% 30.58 in 10.0 mi North 24.2 mph 31.1 mph N/A   Clear
2:13 PM 44.6 °F 36.1 °F 23.0 °F 43% 30.56 in 10.0 mi North 21.9 mph 32.2 mph N/A   Clear
2:33 PM 44.6 °F 36.4 °F 23.0 °F 43% 30.56 in 10.0 mi North 20.7 mph 32.2 mph N/A   Scattered Clouds
2:54 PM 44.6 °F 36.6 °F 21.2 °F 39% 30.56 in 10.0 mi North 19.6 mph 27.6 mph N/A   Clear
3:13 PM 44.6 °F 36.4 °F 23.0 °F 43% 30.55 in 10.0 mi NNW 20.7 mph 28.8 mph N/A   Clear
3:34 PM 44.6 °F 35.9 °F 23.0 °F 43% 30.54 in 10.0 mi NNW 23.0 mph 29.9 mph N/A   Clear
3:54 PM 44.6 °F 35.9 °F 23.0 °F 43% 30.53 in 10.0 mi North 23.0 mph 27.6 mph N/A   Clear
4:13 PM 44.6 °F 36.4 °F 21.2 °F 39% 30.54 in 10.0 mi North 20.7 mph 26.5 mph N/A   Clear
4:34 PM 44.6 °F 36.6 °F 23.0 °F 43% 30.53 in 10.0 mi North 19.6 mph 27.6 mph N/A   Clear
4:54 PM 44.6 °F 36.4 °F 23.0 °F 43% 30.52 in 10.0 mi North 20.7 mph 26.5 mph N/A   Clear
5:13 PM 44.6 °F 37.2 °F 23.0 °F 43% 30.52 in 10.0 mi North 17.3 mph 26.5 mph N/A   Clear
5:34 PM 44.6 °F 36.6 °F 24.8 °F 46% 30.51 in 10.0 mi North 19.6 mph 26.5 mph N/A   Clear
5:54 PM 44.6 °F 36.1 °F 23.0 °F 43% 30.51 in 10.0 mi North 21.9 mph 25.3 mph N/A   Clear
6:13 PM 42.8 °F 34.5 °F 24.8 °F 49% 30.50 in 10.0 mi North 18.4 mph 26.5 mph N/A   Clear
6:34 PM 42.8 °F 34.8 °F 24.8 °F 49% 30.50 in 10.0 mi North 17.3 mph - N/A   Clear
6:54 PM 42.8 °F 34.3 °F 24.8 °F 49% 30.50 in 10.0 mi North 19.6 mph 24.2 mph N/A   Clear
7:13 PM 42.8 °F 34.0 °F 24.8 °F 49% 30.50 in 10.0 mi North 20.7 mph - N/A   Clear
7:34 PM 41.0 °F 31.6 °F 24.8 °F 53% 30.50 in 10.0 mi North 20.7 mph 25.3 mph N/A   Clear
7:54 PM 39.2 °F 29.8 °F 24.8 °F 56% 30.51 in 10.0 mi North 18.4 mph - N/A   Clear
8:13 PM 39.2 °F 30.8 °F 24.8 °F 56% 30.51 in 10.0 mi North 15.0 mph 19.6 mph N/A   Clear
8:34 PM 37.4 °F 28.5 °F 24.8 °F 60% 30.51 in 10.0 mi North 15.0 mph 19.6 mph N/A   Clear
8:54 PM 37.4 °F 28.9 °F 24.8 °F 60% 30.50 in 10.0 mi North 13.8 mph - N/A   Clear
9:13 PM 35.6 °F 26.6 °F 24.8 °F 65% 30.50 in 10.0 mi North 13.8 mph 18.4 mph N/A   Clear
9:34 PM 35.6 °F 26.6 °F 24.8 °F 65% 30.50 in 10.0 mi North 13.8 mph - N/A   Clear
9:54 PM 35.6 °F 26.6 °F 24.8 °F 65% 30.50 in 10.0 mi North 13.8 mph - N/A   Clear
10:13 PM 33.8 °F 24.3 °F 24.8 °F 70% 30.50 in 10.0 mi North 13.8 mph - N/A   Clear
10:34 PM 33.8 °F 25.8 °F 24.8 °F 70% 30.50 in 10.0 mi North 10.4 mph - N/A   Clear
10:53 PM 33.8 °F 25.8 °F 24.8 °F 70% 30.50 in 10.0 mi North 10.4 mph - N/A   Clear
11:13 PM 32.0 °F 24.2 °F 24.8 °F 75% 30.49 in 10.0 mi North 9.2 mph - N/A   Clear
11:34 PM 30.2 °F 21.9 °F 24.8 °F 80% 30.49 in 10.0 mi North 9.2 mph - N/A   Clear
11:53 PM 30.2 °F 22.6 °F 23.0 °F 75% 30.50 in 10.0 mi North 8.1 mph - N/A   Clear